createdAt,value
2017-09-28T00:00:53.393Z,44.84
2017-09-28T00:02:02.406Z,44.92
2017-09-28T00:03:11.422Z,44.82
2017-09-28T00:04:20.446Z,44.92
2017-09-28T00:05:29.475Z,44.92
2017-09-28T00:06:38.489Z,45.31
2017-09-28T00:07:47.505Z,44.92
2017-09-28T00:08:56.838Z,44.82
2017-09-28T00:10:05.530Z,45.31
2017-09-28T00:11:14.544Z,45.31
2017-09-28T00:12:23.574Z,45.21
2017-09-28T00:13:32.583Z,45.11
2017-09-28T00:14:41.277Z,45.4
2017-09-28T00:15:49.974Z,45.11
2017-09-28T00:16:59.309Z,45.31
2017-09-28T00:18:08.326Z,45.11
2017-09-28T00:19:17.980Z,45.01
2017-09-28T00:20:26.997Z,45.31
2017-09-28T00:21:36.649Z,45.01
2017-09-28T00:22:45.664Z,45.11
2017-09-28T00:23:54.680Z,45.01
2017-09-28T00:25:03.375Z,45.01
2017-09-28T00:26:12.393Z,45.11
2017-09-28T00:27:21.409Z,45.01
2017-09-28T00:28:30.424Z,45.01
2017-09-28T00:29:39.439Z,45.21
2017-09-28T00:30:49.094Z,45.11
2017-09-28T00:31:57.791Z,45.01
2017-09-28T00:33:06.805Z,44.92
2017-09-28T00:34:15.819Z,45.21
2017-09-28T00:35:25.479Z,45.11
2017-09-28T00:36:34.817Z,44.82
2017-09-28T00:37:44.477Z,44.73
2017-09-28T00:38:53.809Z,45.11
2017-09-28T00:40:03.144Z,45.11
2017-09-28T00:41:12.476Z,45.21
2017-09-28T00:42:21.816Z,44.82
2017-09-28T00:43:30.830Z,45.11
2017-09-28T00:44:40.175Z,45.11
2017-09-28T00:45:49.193Z,45.4
2017-09-28T00:46:57.889Z,45.01
2017-09-28T00:48:07.225Z,45.11
2017-09-28T00:49:16.239Z,45.4
2017-09-28T00:50:25.256Z,45.11
2017-09-28T00:51:33.952Z,45.01
2017-09-28T00:52:43.294Z,45.21
2017-09-28T00:53:52.308Z,45.11
2017-09-28T00:55:01.002Z,45.21
2017-09-28T00:56:10.344Z,45.11
2017-09-28T00:57:19.359Z,44.82
2017-09-28T00:58:28.376Z,45.11
2017-09-28T00:59:37.076Z,45.11
2017-09-28T01:00:46.420Z,45.4
2017-09-28T01:01:55.433Z,45.21
2017-09-28T01:03:04.770Z,45.01
2017-09-28T01:04:13.786Z,45.31
2017-09-28T01:05:22.808Z,45.21
2017-09-28T01:06:32.479Z,45.21
2017-09-28T01:07:42.120Z,45.11
2017-09-28T01:08:51.457Z,45.21
2017-09-28T01:10:00.795Z,45.21
2017-09-28T02:46:51.088Z,45.48
2017-09-28T02:48:00.102Z,45.96
2017-09-28T02:49:09.120Z,45.96
2017-09-28T02:50:18.463Z,45.96
2017-09-28T02:51:27.796Z,45.86
2017-09-28T02:52:37.130Z,45.96
2017-09-28T02:53:46.467Z,45.96
2017-09-28T02:54:55.481Z,45.86
2017-09-28T02:56:04.829Z,45.96
2017-09-28T02:57:13.849Z,45.28
2017-09-28T02:58:23.187Z,45.89
2017-09-28T02:59:32.204Z,45.89
2017-09-28T03:00:41.859Z,45.86
2017-09-28T03:01:50.560Z,45.86
2017-09-28T03:02:59.575Z,45.96
2017-09-28T03:04:08.272Z,46.06
2017-09-28T03:05:16.968Z,45.57
2017-09-28T03:06:25.988Z,45.96
2017-09-28T03:07:35.003Z,45.86
2017-09-28T03:08:44.338Z,45.86
2017-09-28T03:09:53.668Z,45.98
2017-09-28T03:11:03.004Z,45.96
2017-09-28T03:12:12.019Z,45.96
2017-09-28T03:13:21.035Z,45.96
2017-09-28T03:14:30.365Z,45.76
2017-09-28T03:15:39.382Z,45.86
2017-09-28T03:16:48.073Z,45.76
2017-09-28T03:17:57.091Z,45.96
2017-09-28T03:19:05.783Z,45.86
2017-09-28T03:20:14.795Z,45.86
2017-09-28T03:21:24.131Z,46.06
2017-09-28T03:22:33.463Z,45.76
2017-09-28T03:23:42.795Z,45.86
2017-09-28T03:24:52.135Z,45.57
2017-09-28T03:26:01.145Z,45.57
2017-09-28T03:27:10.478Z,45.57
2017-09-28T03:28:19.492Z,45.67
2017-09-28T03:29:28.506Z,45.76
2017-09-28T03:30:37.838Z,45.57
2017-09-28T03:31:46.851Z,45.57
2017-09-28T03:32:56.188Z,45.86
2017-09-28T03:34:05.200Z,45.86
2017-09-28T03:35:14.217Z,45.76
2017-09-28T03:36:23.554Z,45.67
2017-09-28T03:37:32.567Z,45.67
2017-09-28T03:38:41.267Z,45.76
2017-09-28T03:39:50.605Z,45.96
2017-09-28T03:40:59.300Z,45.76
2017-09-28T03:42:08.313Z,45.67
2017-09-28T03:43:17.646Z,46.15
2017-09-28T03:44:26.665Z,45.86
2017-09-28T03:45:35.682Z,45.57
2017-09-28T03:46:44.702Z,45.76
2017-09-28T03:47:53.398Z,45.86
2017-09-28T03:49:02.410Z,45.57
2017-09-28T03:50:11.741Z,45.38
2017-09-28T03:51:21.072Z,45.86
2017-09-28T03:52:30.726Z,45.96
2017-09-28T03:53:39.739Z,45.96
2017-09-28T03:54:48.436Z,45.86
2017-09-28T03:55:57.129Z,45.59
2017-09-28T03:57:05.825Z,45.48
2017-09-28T03:58:14.839Z,45.96
2017-09-28T03:59:23.848Z,45.28
2017-09-28T04:00:32.548Z,45.28
2017-09-28T04:01:41.566Z,45.28
2017-09-28T04:02:50.584Z,45.4
2017-09-28T04:03:59.280Z,45.5
2017-09-28T04:05:08.297Z,45.4
2017-09-28T04:06:17.648Z,45.38
2017-09-28T04:07:26.987Z,45.28
2017-09-28T04:08:36.004Z,45.4
2017-09-28T04:09:45.018Z,45.09
2017-09-28T04:10:54.031Z,45.09
2017-09-28T04:12:03.053Z,45.09
2017-09-28T04:13:12.059Z,45.01
2017-09-28T04:14:21.710Z,45
2017-09-28T04:15:30.408Z,44.9
2017-09-28T04:16:39.424Z,45
2017-09-28T04:17:48.450Z,45.01
2017-09-28T04:18:57.144Z,45
2017-09-28T04:20:05.843Z,45.11
2017-09-28T04:21:14.533Z,45.11
2017-09-28T04:22:24.192Z,45.5
2017-09-28T04:23:33.533Z,44.92
2017-09-28T04:24:42.551Z,45.18
2017-09-28T04:25:51.563Z,45.11
2017-09-28T04:27:00.581Z,45.4
2017-09-28T04:28:09.601Z,44.82
2017-09-28T04:29:18.931Z,44.82
2017-09-28T04:30:27.625Z,45.09
2017-09-28T04:31:36.319Z,45.11
2017-09-28T04:32:45.336Z,45.11
2017-09-28T04:33:54.671Z,45.11
2017-09-28T04:35:03.682Z,45.01
2017-09-28T04:36:12.694Z,45.01
2017-09-28T04:37:21.387Z,45.11
2017-09-28T04:38:30.722Z,45.11
2017-09-28T04:39:40.061Z,45.01
2017-09-28T04:40:49.715Z,45.21
2017-09-28T04:41:59.049Z,45.01
2017-09-28T04:43:08.060Z,45.21
2017-09-28T04:44:16.758Z,45.31
2017-09-28T04:45:25.458Z,45.21
2017-09-28T04:46:34.470Z,44.82
2017-09-28T04:47:43.507Z,44.73
2017-09-28T04:48:53.160Z,44.73
2017-09-28T04:50:02.173Z,44.82
2017-09-28T04:51:11.200Z,44.92
2017-09-28T04:52:19.921Z,44.73
2017-09-28T04:53:28.618Z,44.82
2017-09-28T04:54:37.313Z,44.82
2017-09-28T04:55:46.645Z,45.01
2017-09-28T04:56:55.663Z,44.92
2017-09-28T04:58:04.680Z,44.92
2017-09-28T04:59:14.011Z,44.82
2017-09-28T05:00:22.710Z,44.92
2017-09-28T05:01:31.722Z,45.01
2017-09-28T05:02:40.737Z,44.82
2017-09-28T05:03:50.393Z,44.92
2017-09-28T05:04:59.729Z,44.82
2017-09-28T05:06:08.747Z,45.01
2017-09-28T05:07:18.083Z,45.21
2017-09-28T05:08:27.415Z,45.11
2017-09-28T05:09:36.748Z,45.21
2017-09-28T05:10:45.804Z,45.11
2017-09-28T05:11:55.140Z,45.01
2017-09-28T05:13:04.496Z,45.01
2017-09-28T05:14:13.830Z,44.82
2017-09-28T05:15:22.845Z,45.11
2017-09-28T05:16:32.175Z,45.01
2017-09-28T05:17:41.518Z,45.11
2017-09-28T05:18:50.858Z,45.11
2017-09-28T05:20:00.195Z,44.92
2017-09-28T05:21:09.525Z,44.92
2017-09-28T05:22:18.540Z,44.92
2017-09-28T05:23:27.236Z,44.73
2017-09-28T05:24:35.937Z,45.01
2017-09-28T05:25:44.945Z,45.21
2017-09-28T05:26:53.964Z,45.11
2017-09-28T05:28:02.979Z,44.63
2017-09-28T05:29:12.317Z,45.01
2017-09-28T05:30:21.649Z,44.82
2017-09-28T05:31:31.305Z,44.92
2017-09-28T05:32:40.961Z,44.82
2017-09-28T05:33:49.977Z,44.82
2017-09-28T05:34:59.316Z,45.01
2017-09-28T05:36:08.661Z,45.21
2017-09-28T05:37:17.680Z,44.82
2017-09-28T05:38:26.694Z,45.01
2017-09-28T05:39:36.034Z,44.92
2017-09-28T05:40:45.374Z,44.92
2017-09-28T05:41:54.706Z,45.01
2017-09-28T05:43:03.721Z,45.11
2017-09-28T05:44:13.057Z,45.01
2017-09-28T05:45:22.707Z,45.11
2017-09-28T05:46:31.402Z,45.11
2017-09-28T05:47:40.741Z,45.21
2017-09-28T05:48:50.075Z,45.01
2017-09-28T05:49:59.417Z,44.73
2017-09-28T05:51:08.754Z,44.92
2017-09-28T05:52:17.770Z,44.73
2017-09-28T05:53:26.784Z,45.11
2017-09-28T05:54:35.480Z,45.11
2017-09-28T05:55:44.832Z,45.11
2017-09-28T05:56:53.842Z,44.75
2017-09-28T05:58:02.860Z,44.63
2017-09-28T05:59:11.559Z,44.73
2017-09-28T06:00:20.257Z,45.01
2017-09-28T06:01:29.914Z,44.82
2017-09-28T06:02:39.251Z,44.63
2017-09-28T06:03:48.601Z,45.01
2017-09-28T06:04:57.616Z,44.73
2017-09-28T06:06:06.633Z,44.43
2017-09-28T06:07:15.325Z,44.92
2017-09-28T06:08:24.338Z,44.63
2017-09-28T06:09:33.358Z,44.82
2017-09-28T06:10:42.049Z,44.82
2017-09-28T06:11:51.060Z,44.73
2017-09-28T06:12:59.757Z,44.92
2017-09-28T06:14:09.095Z,44.73
2017-09-28T06:15:18.426Z,44.65
2017-09-28T06:16:27.770Z,44.94
2017-09-28T06:17:36.791Z,44.73
2017-09-28T06:18:46.772Z,44.82
2017-09-28T06:19:55.789Z,44.63
2017-09-28T06:21:05.126Z,44.63
2017-09-28T06:22:13.820Z,44.84
2017-09-28T06:23:22.837Z,44.73
2017-09-28T06:24:32.496Z,44.73
2017-09-28T06:25:41.510Z,44.53
2017-09-28T06:26:50.848Z,44.84
2017-09-28T06:27:59.872Z,44.73
2017-09-28T06:29:09.231Z,44.82
2017-09-28T06:30:18.589Z,44.73
2017-09-28T06:31:27.286Z,44.73
2017-09-28T06:32:36.621Z,44.53
2017-09-28T06:33:45.319Z,44.82
2017-09-28T06:34:54.012Z,44.82
2017-09-28T06:36:02.705Z,44.73
2017-09-28T06:37:12.363Z,44.82
2017-09-28T06:38:21.707Z,44.82
2017-09-28T06:39:31.071Z,44.53
2017-09-28T06:40:40.399Z,44.53
2017-09-28T06:41:49.411Z,44.73
2017-09-28T06:42:58.106Z,44.53
2017-09-28T06:44:07.774Z,44.63
2017-09-28T06:45:16.790Z,44.63
2017-09-28T06:46:26.129Z,44.63
2017-09-28T06:47:35.465Z,44.73
2017-09-28T06:48:44.483Z,44.63
2017-09-28T06:49:53.494Z,44.82
2017-09-28T06:51:02.504Z,44.63
2017-09-28T06:52:11.835Z,44.43
2017-09-28T06:53:20.880Z,44.43
2017-09-28T06:54:30.535Z,44.24
2017-09-28T06:55:39.232Z,44.34
2017-09-28T06:56:49.206Z,44.73
2017-09-28T06:57:57.901Z,44.63
2017-09-28T06:59:06.918Z,44.36
2017-09-28T07:00:15.939Z,44.36
2017-09-28T07:01:24.951Z,44.26
2017-09-28T07:02:34.283Z,44.17
2017-09-28T07:03:43.303Z,44.17
2017-09-28T07:04:52.643Z,44.56
2017-09-28T07:06:01.659Z,44.43
2017-09-28T07:07:10.672Z,44.36
2017-09-28T07:08:19.369Z,44.65
2017-09-28T07:09:28.708Z,44.07
2017-09-28T07:10:37.400Z,44.26
2017-09-28T07:11:46.736Z,43.98
2017-09-28T07:12:56.073Z,44.07
2017-09-28T07:14:05.406Z,43.98
2017-09-28T07:15:15.061Z,44.07
2017-09-28T07:16:24.074Z,44.07
2017-09-28T07:17:32.773Z,44.36
2017-09-28T07:18:42.424Z,44.17
2017-09-28T07:19:51.441Z,44.17
2017-09-28T07:21:00.459Z,44.17
2017-09-28T07:22:09.149Z,44.26
2017-09-28T07:23:18.489Z,44.17
2017-09-28T07:24:27.183Z,44.17
2017-09-28T07:25:36.194Z,44.17
2017-09-28T07:26:45.537Z,44.26
2017-09-28T07:27:54.559Z,44.26
2017-09-28T07:29:04.213Z,44.26
2017-09-28T07:30:13.227Z,44.36
2017-09-28T07:31:22.239Z,44.07
2017-09-28T07:32:30.940Z,43.98
2017-09-28T07:33:40.281Z,44.26
2017-09-28T07:34:48.975Z,44.36
2017-09-28T07:35:58.628Z,44.07
2017-09-28T07:37:07.956Z,44.17
2017-09-28T07:38:16.976Z,43.98
2017-09-28T07:39:25.674Z,44.46
2017-09-28T07:40:35.008Z,44.17
2017-09-28T07:41:43.704Z,44.36
2017-09-28T07:42:53.041Z,44.26
2017-09-28T07:44:02.058Z,44.07
2017-09-28T07:45:11.073Z,44.07
2017-09-28T07:46:20.724Z,44.26
2017-09-28T07:47:29.417Z,44.46
2017-09-28T07:48:39.070Z,44.07
2017-09-28T07:49:47.765Z,43.88
2017-09-28T07:50:56.777Z,43.98
2017-09-28T07:52:05.791Z,43.98
2017-09-28T07:53:14.488Z,43.98
2017-09-28T07:54:23.506Z,44.56
2017-09-28T07:55:32.847Z,44.07
2017-09-28T07:56:42.191Z,44.17
2017-09-28T07:57:51.209Z,43.59
2017-09-28T07:58:59.901Z,43.9
2017-09-28T08:00:08.915Z,43.99
2017-09-28T08:01:17.929Z,43.71
2017-09-28T08:02:27.268Z,43.61
2017-09-28T08:03:35.961Z,43.41
2017-09-28T08:04:45.616Z,43.71
2017-09-28T08:05:54.633Z,43.61
2017-09-28T08:07:03.645Z,43.51
2017-09-28T08:08:12.669Z,43.51
2017-09-28T08:09:22.008Z,43.51
2017-09-28T08:10:30.704Z,43.41
2017-09-28T08:11:39.719Z,43.41
2017-09-28T08:12:49.050Z,43.32
2017-09-28T08:13:58.064Z,43.13
2017-09-28T08:15:07.400Z,43.41
2017-09-28T08:16:16.738Z,43.03
2017-09-28T08:17:26.392Z,43.03
2017-09-28T08:18:35.411Z,43.03
2017-09-28T08:19:44.746Z,43.32
2017-09-28T08:20:54.081Z,43.24
2017-09-28T08:22:03.101Z,43.05
2017-09-28T08:23:13.071Z,43.05
2017-09-28T08:24:22.405Z,43.34
2017-09-28T08:25:31.743Z,42.83
2017-09-28T08:26:40.760Z,42.93
2017-09-28T08:27:49.780Z,42.96
2017-09-28T08:28:58.804Z,43.15
2017-09-28T08:30:08.142Z,42.86
2017-09-28T08:31:17.478Z,42.96
2017-09-28T08:32:27.135Z,42.86
2017-09-28T08:33:35.832Z,42.76
2017-09-28T08:34:44.529Z,42.76
2017-09-28T08:35:53.546Z,42.76
2017-09-28T08:37:02.561Z,42.96
2017-09-28T08:38:11.579Z,42.96
2017-09-28T08:39:20.589Z,42.57
2017-09-28T08:40:29.931Z,42.57
2017-09-28T08:41:39.273Z,42.57
2017-09-28T08:42:48.295Z,42.47
2017-09-28T08:43:57.623Z,42.47
2017-09-28T08:45:07.599Z,42.57
2017-09-28T08:46:16.298Z,42.57
2017-09-28T08:47:26.273Z,42.57
2017-09-28T08:48:35.288Z,42.96
2017-09-28T08:49:44.299Z,42.37
2017-09-28T08:50:53.955Z,42.18
2017-09-28T08:52:03.295Z,43.05
2017-09-28T08:53:11.991Z,42.37
2017-09-28T08:54:21.330Z,42.37
2017-09-28T08:55:30.347Z,43.05
2017-09-28T08:56:40.007Z,43.15
2017-09-28T08:57:49.021Z,42.47
2017-09-28T08:58:57.718Z,42.57
2017-09-28T09:00:06.730Z,42.57
2017-09-28T09:01:15.745Z,42.28
2017-09-28T09:02:24.442Z,42.66
2017-09-28T09:03:34.096Z,42.37
2017-09-28T09:04:43.112Z,42.18
2017-09-28T09:05:52.127Z,41.89
2017-09-28T09:07:01.464Z,41.82
2017-09-28T09:08:10.792Z,41.91
2017-09-28T09:09:20.136Z,41.72
2017-09-28T09:10:29.160Z,41.42
2017-09-28T09:11:38.174Z,41.42
2017-09-28T09:12:47.200Z,40.96
2017-09-28T09:13:55.895Z,40.67
2017-09-28T09:15:04.588Z,40.48
2017-09-28T09:16:13.606Z,40.96
2017-09-28T09:17:23.262Z,40.28
2017-09-28T09:18:32.601Z,40.58
2017-09-28T09:19:41.616Z,40.89
2017-09-28T09:20:50.312Z,40.31
2017-09-28T09:21:59.006Z,39.92
2017-09-28T09:23:08.338Z,40.01
2017-09-28T09:24:17.033Z,39.9
2017-09-28T09:25:26.052Z,39.9
2017-09-28T09:26:34.751Z,39.72
2017-09-28T09:27:43.771Z,40.01
2017-09-28T09:28:53.109Z,40.21
2017-09-28T09:30:02.442Z,40.77
2017-09-28T09:31:11.461Z,40.89
2017-09-28T09:32:20.788Z,40.5
2017-09-28T09:33:29.801Z,40.59
2017-09-28T09:34:39.135Z,40.99
2017-09-28T09:35:48.788Z,40.69
2017-09-28T09:36:58.128Z,40.86
2017-09-28T09:38:07.476Z,40.79
2017-09-28T09:39:16.491Z,40.89
2017-09-28T09:40:25.512Z,40
2017-09-28T09:41:34.212Z,40.31
2017-09-28T09:42:42.911Z,40.11
2017-09-28T09:43:51.926Z,40.21
2017-09-28T09:45:01.263Z,39.82
2017-09-28T09:46:09.964Z,39.82
2017-09-28T09:47:19.302Z,39.82
2017-09-28T09:48:28.318Z,40.21
2017-09-28T09:49:37.333Z,39.62
2017-09-28T09:50:46.344Z,39.92
2017-09-28T09:51:55.687Z,39.53
2017-09-28T09:53:04.386Z,39.72
2017-09-28T09:54:13.083Z,39.53
2017-09-28T09:55:21.780Z,39.65
2017-09-28T09:56:31.114Z,39.26
2017-09-28T09:57:39.810Z,39.26
2017-09-28T09:58:49.145Z,38.78
2017-09-28T09:59:58.480Z,39.16
2017-09-28T10:01:07.498Z,38.78
2017-09-28T10:02:16.510Z,38.7
2017-09-28T10:03:25.848Z,38.4
2017-09-28T10:04:34.864Z,38.21
2017-09-28T10:05:43.908Z,38.4
2017-09-28T10:06:53.529Z,37.82
2017-09-28T10:08:02.556Z,37.63
2017-09-28T10:09:11.572Z,37.35
2017-09-28T10:10:20.272Z,37.74
2017-09-28T10:11:29.608Z,37.45
2017-09-28T10:12:38.307Z,37.35
2017-09-28T10:13:47.646Z,37.26
2017-09-28T10:14:56.665Z,37.16
2017-09-28T10:16:06.039Z,37.16
2017-09-28T10:17:15.030Z,37.16
2017-09-28T10:18:24.057Z,37.08
2017-09-28T10:19:32.756Z,36.89
2017-09-28T10:20:41.776Z,36.6
2017-09-28T10:21:50.475Z,36.89
2017-09-28T10:22:59.171Z,36.5
2017-09-28T10:24:08.194Z,36.6
2017-09-28T10:25:16.889Z,36.5
2017-09-28T10:26:25.587Z,36.02
2017-09-28T10:27:35.242Z,36.32
2017-09-28T10:28:44.265Z,35.76
2017-09-28T10:29:52.966Z,35.57
2017-09-28T10:31:02.626Z,35.47
2017-09-28T10:32:11.324Z,34.98
2017-09-28T10:33:20.030Z,34.8
2017-09-28T10:34:28.731Z,34.52
2017-09-28T10:35:37.745Z,34.8
2017-09-28T10:36:47.086Z,34.7
2017-09-28T10:37:56.102Z,34.8
2017-09-28T10:39:05.444Z,34.98
2017-09-28T10:40:14.457Z,35
2017-09-28T10:41:23.156Z,35
2017-09-28T10:42:31.859Z,34.69
2017-09-28T10:43:41.197Z,34.8
2017-09-28T10:44:50.863Z,34.61
2017-09-28T10:46:00.198Z,34.8
2017-09-28T10:47:09.564Z,35.1
2017-09-28T10:48:18.238Z,34.42
2017-09-28T10:49:26.936Z,34.32
2017-09-28T10:50:36.591Z,34.05
2017-09-28T10:51:45.930Z,33.95
2017-09-28T10:52:54.950Z,33.85
2017-09-28T10:54:03.964Z,33.65
2017-09-28T10:55:13.300Z,33.48
2017-09-28T10:56:23.275Z,33.28
2017-09-28T10:57:32.294Z,32.71
2017-09-28T10:58:41.313Z,32.62
2017-09-28T10:59:50.333Z,32.32
2017-09-28T11:00:59.992Z,32.71
2017-09-28T11:02:08.694Z,32.91
2017-09-28T11:03:18.358Z,32.81
2017-09-28T11:04:28.010Z,32.42
2017-09-28T11:05:37.030Z,32.34
2017-09-28T11:06:46.363Z,32.42
2017-09-28T11:07:55.064Z,32.71
2017-09-28T11:09:03.763Z,33.18
2017-09-28T11:10:12.467Z,33.48
2017-09-28T11:11:21.162Z,33.95
2017-09-28T11:12:30.179Z,34.05
2017-09-28T11:13:39.193Z,34.42
2017-09-28T11:14:48.530Z,35
2017-09-28T11:15:57.547Z,35.17
2017-09-28T11:17:07.201Z,35.27
2017-09-28T11:18:16.538Z,35.47
2017-09-28T11:19:25.557Z,35.96
2017-09-28T11:20:34.920Z,35.74
2017-09-28T11:21:44.255Z,36.04
2017-09-28T11:22:53.272Z,36.4
2017-09-28T11:24:02.290Z,36.69
2017-09-28T11:25:11.628Z,36.69
2017-09-28T11:26:20.961Z,37.47
2017-09-28T11:27:29.660Z,37.08
2017-09-28T11:28:38.682Z,37.28
2017-09-28T11:29:47.382Z,37.45
2017-09-28T11:30:56.403Z,37.84
2017-09-28T11:32:06.062Z,38.04
2017-09-28T11:33:15.723Z,37.94
2017-09-28T11:34:25.375Z,38.32
2017-09-28T11:35:34.391Z,38.23
2017-09-28T11:36:43.408Z,38.23
2017-09-28T11:37:53.388Z,38.5
2017-09-28T11:39:02.731Z,38.7
2017-09-28T11:40:11.425Z,38.7
2017-09-28T11:41:20.441Z,38.79
2017-09-28T11:42:29.464Z,38.99
2017-09-28T11:43:38.808Z,38.99
2017-09-28T11:44:47.830Z,39.28
2017-09-28T11:45:56.527Z,39.28
2017-09-28T11:47:05.866Z,39.26
2017-09-28T11:48:14.880Z,39.65
2017-09-28T11:49:23.895Z,39.45
2017-09-28T11:50:33.238Z,39.55
2017-09-28T11:51:42.572Z,39.55
2017-09-28T11:52:51.271Z,39.74
2017-09-28T11:54:00.608Z,39.74
2017-09-28T11:55:09.941Z,39.84
2017-09-28T11:56:18.957Z,39.65
2017-09-28T11:57:27.973Z,40.13
2017-09-28T11:58:37.637Z,39.74
2017-09-28T11:59:47.288Z,39.94
2017-09-28T12:00:55.981Z,39.72
2017-09-28T12:02:04.676Z,40.01
2017-09-28T12:03:13.698Z,39.92
2017-09-28T12:04:23.035Z,40.01
2017-09-28T12:05:32.054Z,40.4
2017-09-28T12:06:41.713Z,40.01
2017-09-28T12:07:51.372Z,40.42
2017-09-28T12:09:00.066Z,40.01
2017-09-28T12:10:09.398Z,40.69
2017-09-28T12:11:18.741Z,40.21
2017-09-28T12:12:27.436Z,40.31
2017-09-28T12:13:36.131Z,40.79
2017-09-28T12:14:45.157Z,40.89
2017-09-28T12:15:53.846Z,41.17
2017-09-28T12:17:02.860Z,41.17
2017-09-28T12:18:11.551Z,40.4
2017-09-28T12:19:20.567Z,40.59
2017-09-28T12:20:29.582Z,40.59
2017-09-28T12:21:38.276Z,40.59
2017-09-28T12:22:47.612Z,40.69
2017-09-28T12:23:56.629Z,40.99
2017-09-28T12:25:05.971Z,40.89
2017-09-28T12:26:14.986Z,40.96
2017-09-28T12:27:24.646Z,41.37
2017-09-28T12:28:33.666Z,40.99
2017-09-28T12:29:42.684Z,41.06
2017-09-28T12:30:51.382Z,41.45
2017-09-28T12:32:00.715Z,41.06
2017-09-28T12:33:09.742Z,41.45
2017-09-28T12:34:18.772Z,41.55
2017-09-28T12:35:28.427Z,41.55
2017-09-28T12:36:37.449Z,41.55
2017-09-28T12:37:46.781Z,41.45
2017-09-28T12:38:55.797Z,41.45
2017-09-28T12:40:04.822Z,41.35
2017-09-28T12:41:13.840Z,41.45
2017-09-28T12:42:23.507Z,40.96
2017-09-28T12:43:32.519Z,41.45
2017-09-28T12:44:41.529Z,41.16
2017-09-28T12:45:50.541Z,41.64
2017-09-28T12:46:59.873Z,41.74
2017-09-28T12:48:08.574Z,42.32
2017-09-28T12:49:17.588Z,42.13
2017-09-28T12:50:26.953Z,42.13
2017-09-28T12:51:35.969Z,42.22
2017-09-28T12:52:44.984Z,41.93
2017-09-28T12:53:53.998Z,41.93
2017-09-28T12:55:02.694Z,41.83
2017-09-28T12:56:11.708Z,42.22
2017-09-28T12:57:21.040Z,42.13
2017-09-28T12:58:30.693Z,41.93
2017-09-28T12:59:39.710Z,42.1
2017-09-28T13:00:49.043Z,42.2
2017-09-28T13:01:57.738Z,42.3
2017-09-28T13:03:07.116Z,42.2
2017-09-28T13:04:16.457Z,42.1
2017-09-28T13:05:25.475Z,42.49
2017-09-28T13:06:34.813Z,42.4
2017-09-28T13:07:44.149Z,42.68
2017-09-28T13:08:53.484Z,42.4
2017-09-28T13:10:02.507Z,42.59
2017-09-28T13:11:11.524Z,42.3
2017-09-28T13:12:20.223Z,42.68
2017-09-28T13:13:29.243Z,42.78
2017-09-28T13:14:38.578Z,42.49
2017-09-28T13:15:47.913Z,42.49
2017-09-28T13:16:56.933Z,42.49
2017-09-28T13:18:05.632Z,42.49
2017-09-28T13:19:14.646Z,42.49
2017-09-28T13:20:23.668Z,42.88
2017-09-28T13:21:32.689Z,42.78
2017-09-28T13:22:42.028Z,42.88
2017-09-28T13:23:51.751Z,42.97
2017-09-28T13:25:01.089Z,42.88
2017-09-28T13:26:10.101Z,42.86
2017-09-28T13:27:18.798Z,42.78
2017-09-28T13:28:27.821Z,42.59
2017-09-28T13:29:36.838Z,42.88
2017-09-28T13:30:45.854Z,42.88
2017-09-28T13:31:55.833Z,42.78
2017-09-28T13:33:05.167Z,43.37
2017-09-28T13:34:14.504Z,42.76
2017-09-28T13:35:23.838Z,42.88
2017-09-28T13:36:32.535Z,42.96
2017-09-28T13:37:41.875Z,42.97
2017-09-28T13:38:50.571Z,42.97
2017-09-28T13:39:59.266Z,42.78
2017-09-28T13:41:08.608Z,42.96
2017-09-28T13:42:17.624Z,42.88
2017-09-28T13:43:26.646Z,43.27
2017-09-28T13:44:35.659Z,42.97
2017-09-28T13:45:44.998Z,43.27
2017-09-28T13:46:54.332Z,43.34
2017-09-28T13:48:03.027Z,43.34
2017-09-28T13:49:12.040Z,42.88
2017-09-28T13:50:21.058Z,42.88
2017-09-28T13:51:29.750Z,42.86
2017-09-28T13:52:39.408Z,42.86
2017-09-28T13:53:48.105Z,42.86
2017-09-28T13:54:56.816Z,43.27
2017-09-28T13:56:06.156Z,42.86
2017-09-28T13:57:14.851Z,42.88
2017-09-28T13:58:23.867Z,43.17
2017-09-28T13:59:32.566Z,42.76
2017-09-28T14:00:41.585Z,42.76
2017-09-28T14:01:51.242Z,43.05
2017-09-28T14:03:00.256Z,42.86
2017-09-28T14:04:09.599Z,43.05
2017-09-28T14:05:18.615Z,42.76
2017-09-28T14:06:27.312Z,43.15
2017-09-28T14:07:36.006Z,42.76
2017-09-28T14:08:44.701Z,42.57
2017-09-28T14:09:53.729Z,42.86
2017-09-28T14:11:02.742Z,43.15
2017-09-28T14:12:12.477Z,43.15
2017-09-28T14:13:22.193Z,42.59
2017-09-28T14:14:31.211Z,43.17
2017-09-28T14:15:40.865Z,42.86
2017-09-28T14:16:49.887Z,42.88
2017-09-28T14:17:59.225Z,42.86
2017-09-28T14:19:08.238Z,42.78
2017-09-28T14:20:16.935Z,43.17
2017-09-28T14:21:25.952Z,42.88
2017-09-28T14:22:34.968Z,43.05
2017-09-28T14:23:43.984Z,42.97
2017-09-28T14:24:53.032Z,42.78
2017-09-28T14:26:02.015Z,43.15
2017-09-28T14:27:11.028Z,43.17
2017-09-28T14:28:19.725Z,42.78
2017-09-28T14:29:28.423Z,42.78
2017-09-28T14:30:37.436Z,42.86
2017-09-28T14:31:46.133Z,43.07
2017-09-28T14:32:55.145Z,42.97
2017-09-28T14:34:03.841Z,42.76
2017-09-28T14:35:12.538Z,43.15
2017-09-28T14:36:21.236Z,42.78
2017-09-28T14:37:30.250Z,42.88
2017-09-28T14:38:38.947Z,42.68
2017-09-28T14:39:48.316Z,42.59
2017-09-28T14:40:57.971Z,43.15
2017-09-28T14:42:07.638Z,43.17
2017-09-28T14:43:16.981Z,42.86
2017-09-28T14:44:26.329Z,42.59
2017-09-28T14:45:35.670Z,42.66
2017-09-28T14:46:45.653Z,43.15
2017-09-28T14:47:54.677Z,42.76
2017-09-28T14:49:03.377Z,42.86
2017-09-28T14:50:13.033Z,43.27
2017-09-28T14:51:22.055Z,42.97
2017-09-28T14:52:30.755Z,42.88
2017-09-28T14:53:39.455Z,42.86
2017-09-28T14:54:49.112Z,43.37
2017-09-28T14:55:58.138Z,42.88
2017-09-28T14:57:07.230Z,42.96
2017-09-28T14:58:16.496Z,42.97
2017-09-28T14:59:25.837Z,42.96
2017-09-28T15:00:35.497Z,42.97
2017-09-28T15:01:44.196Z,42.96
2017-09-28T15:02:53.533Z,43.05
2017-09-28T15:04:02.234Z,42.66
2017-09-28T15:05:11.250Z,42.86
2017-09-28T15:06:20.591Z,43.05
2017-09-28T15:07:29.293Z,43.05
2017-09-28T15:08:37.991Z,42.76
2017-09-28T15:09:47.378Z,43.27
2017-09-28T15:10:56.074Z,43.27
2017-09-28T15:12:05.422Z,43.05
2017-09-28T15:13:14.440Z,43.15
2017-09-28T15:14:23.776Z,43.05
2017-09-28T15:15:33.113Z,43.05
2017-09-28T15:16:42.774Z,43.15
2017-09-28T15:17:52.108Z,43.05
2017-09-28T15:19:01.126Z,43.15
2017-09-28T15:20:10.790Z,43.15
2017-09-28T15:21:19.486Z,43.15
2017-09-28T15:22:28.179Z,43.05
2017-09-28T15:23:38.148Z,43.15
2017-09-28T15:25:19.574Z,43.15
2017-09-28T15:26:29.238Z,43.34
2017-09-28T15:27:38.255Z,43.15
2017-09-28T15:28:47.592Z,43.05
2017-09-28T15:29:56.293Z,43.15
2017-09-28T15:31:05.308Z,43.24
2017-09-28T15:32:14.001Z,43.24
2017-09-28T15:33:22.708Z,43.15
2017-09-28T15:34:31.715Z,43.54
2017-09-28T15:35:41.053Z,43.54
2017-09-28T15:36:49.755Z,43.24
2017-09-28T15:37:59.094Z,43.34
2017-09-28T15:39:07.785Z,43.34
2017-09-28T15:40:17.121Z,43.44
2017-09-28T15:41:26.141Z,43.44
2017-09-28T15:42:35.813Z,43.44
2017-09-28T15:43:45.151Z,43.44
2017-09-28T15:44:54.165Z,43.63
2017-09-28T15:46:03.182Z,43.44
2017-09-28T15:47:11.877Z,43.54
2017-09-28T15:48:21.209Z,43.54
2017-09-28T15:49:29.907Z,43.54
2017-09-28T15:50:38.925Z,43.73
2017-09-28T15:51:47.619Z,43.63
2017-09-28T15:52:56.310Z,43.44
2017-09-28T15:54:05.326Z,43.54
2017-09-28T15:55:14.668Z,43.54
2017-09-28T15:56:23.364Z,43.63
2017-09-28T15:57:32.709Z,43.44
2017-09-28T15:58:42.052Z,43.73
2017-09-28T15:59:51.073Z,44.02
2017-09-28T16:01:00.733Z,43.63
2017-09-28T16:02:10.074Z,44.21
2017-09-28T16:03:19.089Z,44.21
2017-09-28T16:04:27.905Z,44.12
2017-09-28T16:05:37.129Z,43.92
2017-09-28T16:06:46.148Z,44.12
2017-09-28T16:07:56.065Z,44.02
2017-09-28T16:09:05.076Z,44.02
2017-09-28T16:10:14.091Z,43.73
2017-09-28T16:11:23.104Z,43.73
2017-09-28T16:12:32.447Z,44.21
2017-09-28T16:13:41.150Z,44.21
2017-09-28T16:14:50.491Z,44.21
2017-09-28T16:15:59.507Z,44.02
2017-09-28T16:17:08.845Z,43.92
2017-09-28T16:18:17.870Z,44.12
2017-09-28T16:19:26.884Z,44.12
2017-09-28T16:20:35.578Z,44.12
2017-09-28T16:21:44.604Z,44.02
2017-09-28T16:22:53.304Z,43.99
2017-09-28T16:24:03.284Z,44.6
2017-09-28T16:25:12.295Z,44.12
2017-09-28T16:26:21.310Z,44.21
2017-09-28T16:27:30.011Z,44.4
2017-09-28T16:28:39.676Z,44.19